Grouse Creek, UT

10:52 PM MDT on September 20, 2014 (GMT -0600)
Burley Municipal | Change Station
CLOSE
Current Station
Airport
Location: Burley,
Elevation: 4150 ft
Nearby Weather Stations

Elev 4150 ft 42.54 °N, 113.77 °W | Updated 59 minutes ago

Clear
Clear
58 °F
Feels Like 58 °F
N
4
Wind Variable Wind from ESE

Today
High -- | Low -- °F
--% Chance of Precip.
Yesterday
High -- | Low -- °F
Precip. -- in
7:20 AM 7:35 PM
Waning Crescent, 8% visible
Pressure 30.01 in
Visibility 10.0 miles
Clouds Clear
Dew Point 48 °F
Humidity 70%
Rainfall 0.00 in
Snow Depth 0 in , 0 in , 1 in
UV 0 out of 12
Pollen 6.90 out of 12
PM2.5 Good
Flu Activity Not available.
METAR KBYI 210353Z AUTO 11003KT 10SM CLR 14/09 A3009 RMK AO2 SLP163 T01440089

More Conditions Fewer Conditions

Pressure 30.01 in
Visibility 10.0 miles
Clouds Clear
Dew Point 48 °F
Humidity 70%
Rainfall 0.00 in
Snow Depth 0 in , 0 in , 1 in
UV 0 out of 12
Pollen 6.90 out of 12
PM2.5 Good
Flu Activity Not available.
METAR KBYI 210353Z AUTO 11003KT 10SM CLR 14/09 A3009 RMK AO2 SLP163 T01440089

More Conditions Fewer Conditions

10-Day Weather Forecast

Almanac

Astronomy

Sep. 20, 2014 Rise Set
Actual Time 7:20 AM MDT 7:35 PM MDT
Civil Twilight 6:52 AM MDT 8:03 PM MDT
Nautical Twilight 6:20 AM MDT 8:35 PM MDT
Astronomical Twilight 5:47 AM MDT 9:08 PM MDT
Moon 4:01 AM MDT (9/20) 5:42 PM MDT (9/20)
Length of Visible Light 13h 10m
Length of Day
12h 15m
Tomorrow will be 2m 45s shorter.
Waning Crescent, 8% of the Moon is Illuminated
Sep 21
Waning Crescent
Sep 24
New
Oct 1
First Quarter
Oct 8
Full
Oct 15
Last Quarter

Yesterday's Extremes

State Highs State Lows

Community

WunderPhotos

Upload Photos

1,755,086 photos uploaded!

Nearby

Air Quality

  Air Quality AQ Index Pollutant
Yesterday Good
OZONE
Yesterday Good
PM2.5
Current Good
PM2.5

Snow Depth

Station Depth Elevation
Agua Canyon 0 in 8900 ft
Brown Duck 0 in 10600 ft
Trial Lake 1 in 9960 ft
Snowbird 0 in 9640 ft
Mill-d North 0 in 8960 ft

Earthquake Activity

City Distance Mag. Time & Date
No recent earthquake activity has been reported nearby.
Minimum magnitude displayed is 2.5.

Coastal Water Temperatures

Place Temperature
No Stations Reporting

Nearby Weather Stations